createdAt,value
2023-01-06T00:00:15.028Z,1017.17
2023-01-06T00:01:15.112Z,1017.15
2023-01-06T00:02:14.998Z,1017.21
2023-01-06T00:03:14.986Z,1017.19
2023-01-06T00:04:15.037Z,1017.17
2023-01-06T00:05:14.995Z,1017.15
2023-01-06T00:06:14.946Z,1017.15
2023-01-06T00:07:14.934Z,1017.12
2023-01-06T00:08:14.937Z,1017.18
2023-01-06T00:09:14.916Z,1017.12
2023-01-06T00:10:14.924Z,1017.19
2023-01-06T00:11:14.916Z,1017.17
2023-01-06T00:12:14.874Z,1017.27
2023-01-06T00:13:14.867Z,1017.17
2023-01-06T00:14:14.848Z,1017.25
2023-01-06T00:15:14.864Z,1017.21
2023-01-06T00:16:14.876Z,1017.12
2023-01-06T00:17:14.937Z,1017.10
2023-01-06T00:18:14.804Z,1017.11
2023-01-06T00:19:14.805Z,1017.07
2023-01-06T00:20:14.810Z,1017.05
2023-01-06T00:21:14.791Z,1017.12
2023-01-06T00:22:14.763Z,1017.11
2023-01-06T00:23:14.758Z,1017.10
2023-01-06T00:24:14.740Z,1017.05
2023-01-06T00:25:14.763Z,1017.03
2023-01-06T00:26:14.746Z,1017.06
2023-01-06T00:27:14.706Z,1017.02
2023-01-06T00:28:14.692Z,1017.03
2023-01-06T00:29:14.709Z,1017.02
2023-01-06T00:30:14.672Z,1017.00
2023-01-06T00:31:14.726Z,1016.95
2023-01-06T00:32:14.653Z,1016.99
2023-01-06T00:33:14.756Z,1016.94
2023-01-06T00:34:14.673Z,1016.94
2023-01-06T00:35:14.630Z,1016.90
2023-01-06T00:36:14.614Z,1016.87
2023-01-06T00:37:14.597Z,1016.88
2023-01-06T00:38:14.610Z,1016.86
2023-01-06T00:39:14.600Z,1016.80
2023-01-06T00:40:14.561Z,1016.82
2023-01-06T00:41:14.557Z,1016.78
2023-01-06T00:42:14.548Z,1016.81
2023-01-06T00:43:14.537Z,1016.83
2023-01-06T00:44:14.545Z,1016.82
2023-01-06T00:45:14.537Z,1016.83
2023-01-06T00:46:14.512Z,1016.87
2023-01-06T00:47:14.488Z,1016.88
2023-01-06T00:48:14.505Z,1016.90
2023-01-06T00:49:14.604Z,1016.96
2023-01-06T00:50:14.451Z,1017.00
2023-01-06T00:51:14.448Z,1016.96
2023-01-06T00:52:14.428Z,1016.90
2023-01-06T00:53:14.447Z,1016.88
2023-01-06T00:54:14.427Z,1016.84
2023-01-06T00:55:14.400Z,1016.87
2023-01-06T00:56:14.390Z,1016.82
2023-01-06T00:57:14.379Z,1016.87
2023-01-06T00:58:14.391Z,1016.85
2023-01-06T00:59:14.373Z,1016.91
2023-01-06T01:00:14.347Z,1016.96
2023-01-06T01:01:14.430Z,1016.96
2023-01-06T01:02:14.539Z,1017.02
2023-01-06T01:03:14.343Z,1017.11
2023-01-06T01:04:14.325Z,1017.09
2023-01-06T01:05:14.406Z,1017.10
2023-01-06T01:06:14.271Z,1017.08
2023-01-06T01:07:14.269Z,1017.05
2023-01-06T01:08:14.256Z,1017.05
2023-01-06T01:09:14.264Z,1017.00
2023-01-06T01:10:14.234Z,1016.97
2023-01-06T01:11:14.228Z,1016.92
2023-01-06T01:12:14.219Z,1016.94
2023-01-06T01:13:14.200Z,1016.90
2023-01-06T01:14:14.212Z,1016.91
2023-01-06T01:15:14.187Z,1016.92
2023-01-06T01:16:14.173Z,1016.94
2023-01-06T01:17:14.179Z,1016.83
2023-01-06T01:18:14.146Z,1016.92
2023-01-06T01:19:14.140Z,1016.92
2023-01-06T01:20:14.129Z,1016.89
2023-01-06T01:21:14.232Z,1016.88
2023-01-06T01:22:14.135Z,1016.86
2023-01-06T01:23:14.098Z,1016.85
2023-01-06T01:24:14.084Z,1016.91
2023-01-06T01:25:14.077Z,1016.86
2023-01-06T01:26:14.060Z,1016.81
2023-01-06T01:27:14.076Z,1016.81
2023-01-06T01:28:14.038Z,1016.79
2023-01-06T01:29:14.033Z,1016.80
2023-01-06T01:30:14.019Z,1016.74
2023-01-06T01:31:14.088Z,1016.82
2023-01-06T01:32:14.023Z,1016.76
2023-01-06T01:33:13.991Z,1016.74
2023-01-06T01:34:13.983Z,1016.72
2023-01-06T01:35:13.969Z,1016.74
2023-01-06T01:36:13.954Z,1016.78
2023-01-06T01:37:14.077Z,1016.80
2023-01-06T01:38:13.952Z,1016.75
2023-01-06T01:39:13.928Z,1016.76
2023-01-06T01:40:13.915Z,1016.69
2023-01-06T01:41:13.909Z,1016.76
2023-01-06T01:42:13.891Z,1016.69
2023-01-06T01:43:13.905Z,1016.73
2023-01-06T01:44:13.870Z,1016.76
2023-01-06T01:45:13.868Z,1016.79
2023-01-06T01:46:13.884Z,1016.78
2023-01-06T01:47:13.848Z,1016.80
2023-01-06T01:48:13.852Z,1016.79
2023-01-06T01:49:13.819Z,1016.79
2023-01-06T01:50:13.807Z,1016.78
2023-01-06T01:51:13.799Z,1016.78
2023-01-06T01:52:13.781Z,1016.79
2023-01-06T01:53:13.917Z,1016.81
2023-01-06T01:54:13.771Z,1016.84
2023-01-06T01:55:13.756Z,1016.78
2023-01-06T01:56:13.739Z,1016.75
2023-01-06T01:57:13.749Z,1016.76
2023-01-06T01:58:13.741Z,1016.79
2023-01-06T01:59:13.716Z,1016.79
2023-01-06T02:00:13.699Z,1016.70
2023-01-06T02:01:13.787Z,1016.77
2023-01-06T02:02:13.833Z,1016.75
2023-01-06T02:03:13.745Z,1016.75
2023-01-06T02:04:13.660Z,1016.72
2023-01-06T02:05:13.648Z,1016.72
2023-01-06T02:06:13.639Z,1016.71
2023-01-06T02:07:13.624Z,1016.76
2023-01-06T02:08:13.634Z,1016.68
2023-01-06T02:09:13.736Z,1016.75
2023-01-06T02:10:13.619Z,1016.64
2023-01-06T02:11:13.581Z,1016.64
2023-01-06T02:12:13.569Z,1016.63
2023-01-06T02:13:13.564Z,1016.59
2023-01-06T02:14:13.580Z,1016.60
2023-01-06T02:15:13.566Z,1016.62
2023-01-06T02:16:13.570Z,1016.66
2023-01-06T02:17:13.518Z,1016.68
2023-01-06T02:18:13.503Z,1016.67
2023-01-06T02:19:13.531Z,1016.61
2023-01-06T02:20:13.491Z,1016.64
2023-01-06T02:21:13.478Z,1016.60
2023-01-06T02:22:13.472Z,1016.55
2023-01-06T02:23:13.453Z,1016.51
2023-01-06T02:24:13.444Z,1016.45
2023-01-06T02:25:13.595Z,1016.49
2023-01-06T02:26:13.421Z,1016.45
2023-01-06T02:27:13.414Z,1016.49
2023-01-06T02:28:13.403Z,1016.49
2023-01-06T02:29:13.391Z,1016.48
2023-01-06T02:30:13.393Z,1016.53
2023-01-06T02:31:13.448Z,1016.51
2023-01-06T02:32:13.360Z,1016.51
2023-01-06T02:33:13.351Z,1016.50
2023-01-06T02:34:13.335Z,1016.39
2023-01-06T02:35:13.335Z,1016.40
2023-01-06T02:36:13.334Z,1016.40
2023-01-06T02:37:13.305Z,1016.36
2023-01-06T02:38:13.290Z,1016.38
2023-01-06T02:39:13.283Z,1016.34
2023-01-06T02:40:13.267Z,1016.43
2023-01-06T02:41:13.398Z,1016.37
2023-01-06T02:42:13.246Z,1016.39
2023-01-06T02:43:13.242Z,1016.31
2023-01-06T02:44:13.225Z,1016.27
2023-01-06T02:45:13.216Z,1016.25
2023-01-06T02:46:13.285Z,1016.19
2023-01-06T02:47:13.205Z,1016.25
2023-01-06T02:48:13.200Z,1016.24
2023-01-06T02:49:13.179Z,1016.27
2023-01-06T02:50:13.159Z,1016.26
2023-01-06T02:51:13.179Z,1016.28
2023-01-06T02:52:13.140Z,1016.25
2023-01-06T02:53:13.135Z,1016.27
2023-01-06T02:54:13.149Z,1016.31
2023-01-06T02:55:13.114Z,1016.27
2023-01-06T02:56:13.102Z,1016.25
2023-01-06T02:57:13.199Z,1016.25
2023-01-06T02:58:13.075Z,1016.25
2023-01-06T02:59:13.101Z,1016.24
2023-01-06T03:00:13.055Z,1016.20
2023-01-06T03:01:13.077Z,1016.21
2023-01-06T03:02:13.082Z,1016.25
2023-01-06T03:03:13.031Z,1016.19
2023-01-06T03:04:13.086Z,1016.18
2023-01-06T03:05:13.001Z,1016.19
2023-01-06T03:06:12.998Z,1016.18
2023-01-06T03:07:12.998Z,1016.10
2023-01-06T03:08:12.990Z,1016.20
2023-01-06T03:09:12.979Z,1016.10
2023-01-06T03:10:12.945Z,1016.13
2023-01-06T03:11:12.957Z,1016.08
2023-01-06T03:12:12.929Z,1016.08
2023-01-06T03:13:13.052Z,1016.08
2023-01-06T03:14:12.903Z,1016.06
2023-01-06T03:15:12.909Z,1016.09
2023-01-06T03:16:12.938Z,1016.11
2023-01-06T03:17:12.877Z,1016.10
2023-01-06T03:18:12.892Z,1016.11
2023-01-06T03:19:12.854Z,1016.03
2023-01-06T03:20:12.851Z,1016.08
2023-01-06T03:21:12.836Z,1016.07
2023-01-06T03:22:12.833Z,1016.07
2023-01-06T03:23:12.804Z,1016.08
2023-01-06T03:24:12.818Z,1016.08
2023-01-06T03:25:12.791Z,1016.01
2023-01-06T03:26:12.774Z,1016.03
2023-01-06T03:27:12.787Z,1016.05
2023-01-06T03:28:12.756Z,1016.00
2023-01-06T03:29:12.865Z,1015.94
2023-01-06T03:30:12.733Z,1015.96
2023-01-06T03:31:12.814Z,1015.97
2023-01-06T03:32:12.725Z,1016.00
2023-01-06T03:33:12.693Z,1015.96
2023-01-06T03:34:12.681Z,1015.99
2023-01-06T03:35:12.697Z,1015.91
2023-01-06T03:36:12.668Z,1015.94
2023-01-06T03:37:12.647Z,1015.88
2023-01-06T03:38:12.644Z,1015.88
2023-01-06T03:39:12.641Z,1015.87
2023-01-06T03:40:12.624Z,1015.91
2023-01-06T03:41:12.650Z,1015.83
2023-01-06T03:42:24.518Z,1015.84
2023-01-06T03:43:13.604Z,1015.71
2023-01-06T03:44:12.574Z,1015.72
2023-01-06T03:45:12.685Z,1015.66
2023-01-06T03:46:12.584Z,1015.70
2023-01-06T03:47:12.544Z,1015.71
2023-01-06T03:48:12.546Z,1015.70
2023-01-06T03:49:12.525Z,1015.74
2023-01-06T03:50:12.522Z,1015.68
2023-01-06T03:51:12.505Z,1015.74
2023-01-06T03:52:12.532Z,1015.76
2023-01-06T03:53:12.474Z,1015.74
2023-01-06T03:54:12.467Z,1015.77
2023-01-06T03:55:12.473Z,1015.80
2023-01-06T03:56:12.465Z,1015.75
2023-01-06T03:57:12.432Z,1015.76
2023-01-06T03:58:12.420Z,1015.77
2023-01-06T03:59:12.407Z,1015.79
2023-01-06T04:00:12.423Z,1015.80
2023-01-06T04:01:12.675Z,1015.75
2023-01-06T04:02:12.378Z,1015.71
2023-01-06T04:03:12.359Z,1015.74
2023-01-06T04:04:12.354Z,1015.67
2023-01-06T04:05:12.367Z,1015.64
2023-01-06T04:06:12.334Z,1015.66
2023-01-06T04:07:12.321Z,1015.62
2023-01-06T04:08:12.309Z,1015.60
2023-01-06T04:09:12.299Z,1015.61
2023-01-06T04:10:12.311Z,1015.63
2023-01-06T04:11:12.276Z,1015.58
2023-01-06T04:12:12.291Z,1015.68
2023-01-06T04:13:12.250Z,1015.71
2023-01-06T04:14:12.249Z,1015.62
2023-01-06T04:15:12.232Z,1015.60
2023-01-06T04:16:12.281Z,1015.55
2023-01-06T04:17:13.691Z,1015.50
2023-01-06T04:18:12.228Z,1015.51
2023-01-06T04:19:12.185Z,1015.47
2023-01-06T04:20:12.209Z,1015.51
2023-01-06T04:21:12.163Z,1015.45
2023-01-06T04:22:12.156Z,1015.51
2023-01-06T04:23:12.145Z,1015.47
2023-01-06T04:24:12.145Z,1015.43
2023-01-06T04:25:12.146Z,1015.47
2023-01-06T04:26:12.113Z,1015.43
2023-01-06T04:27:12.100Z,1015.47
2023-01-06T04:28:12.093Z,1015.50
2023-01-06T04:29:12.110Z,1015.53
2023-01-06T04:30:12.103Z,1015.51
2023-01-06T04:31:12.131Z,1015.49
2023-01-06T04:32:12.042Z,1015.46
2023-01-06T04:33:12.148Z,1015.43
2023-01-06T04:34:12.043Z,1015.44
2023-01-06T04:35:12.038Z,1015.33
2023-01-06T04:36:12.001Z,1015.32
2023-01-06T04:37:11.989Z,1015.29
2023-01-06T04:38:11.983Z,1015.35
2023-01-06T04:39:11.986Z,1015.34
2023-01-06T04:40:11.978Z,1015.33
2023-01-06T04:41:11.948Z,1015.32
2023-01-06T04:42:11.941Z,1015.24
2023-01-06T04:43:11.920Z,1015.25
2023-01-06T04:44:11.936Z,1015.22
2023-01-06T04:45:11.900Z,1015.21
2023-01-06T04:46:11.916Z,1015.21
2023-01-06T04:47:11.877Z,1015.22
2023-01-06T04:48:11.893Z,1015.13
2023-01-06T04:49:11.966Z,1015.12
2023-01-06T04:50:11.845Z,1015.12
2023-01-06T04:51:11.830Z,1015.09
2023-01-06T04:52:11.825Z,1015.07
2023-01-06T04:53:11.831Z,1015.07
2023-01-06T04:54:11.805Z,1015.03
2023-01-06T04:55:11.786Z,1014.99
2023-01-06T04:56:11.806Z,1014.95
2023-01-06T04:57:11.768Z,1014.92
2023-01-06T04:58:11.764Z,1014.89
2023-01-06T04:59:11.761Z,1014.83
2023-01-06T05:00:11.736Z,1014.88
2023-01-06T05:01:11.863Z,1014.84
2023-01-06T05:02:11.720Z,1014.85
2023-01-06T05:03:11.702Z,1014.90
2023-01-06T05:04:11.743Z,1014.89
2023-01-06T05:05:11.798Z,1014.82
2023-01-06T05:06:11.681Z,1014.84
2023-01-06T05:07:11.692Z,1014.83
2023-01-06T05:08:11.647Z,1014.82
2023-01-06T05:09:11.635Z,1014.80
2023-01-06T05:10:11.642Z,1014.83
2023-01-06T05:11:11.615Z,1014.76
2023-01-06T05:12:11.612Z,1014.77
2023-01-06T05:13:11.612Z,1014.76
2023-01-06T05:14:11.586Z,1014.70
2023-01-06T05:15:11.584Z,1014.64
2023-01-06T05:16:11.596Z,1014.62
2023-01-06T05:17:11.573Z,1014.62
2023-01-06T05:18:11.546Z,1014.59
2023-01-06T05:19:11.536Z,1014.61
2023-01-06T05:20:11.530Z,1014.56
2023-01-06T05:21:11.637Z,1014.59
2023-01-06T05:22:11.524Z,1014.57
2023-01-06T05:23:11.486Z,1014.53
2023-01-06T05:24:11.475Z,1014.59
2023-01-06T05:25:11.469Z,1014.63
2023-01-06T05:26:11.455Z,1014.60
2023-01-06T05:27:11.463Z,1014.60
2023-01-06T05:28:11.475Z,1014.57
2023-01-06T05:29:11.432Z,1014.59
2023-01-06T05:30:11.412Z,1014.63
2023-01-06T05:31:11.405Z,1014.62
2023-01-06T05:32:11.429Z,1014.63
2023-01-06T05:33:11.378Z,1014.50
2023-01-06T05:34:11.364Z,1014.60
2023-01-06T05:35:11.351Z,1014.53
2023-01-06T05:36:11.344Z,1014.50
2023-01-06T05:37:11.446Z,1014.47
2023-01-06T05:38:11.345Z,1014.41
2023-01-06T05:39:11.309Z,1014.41
2023-01-06T05:40:11.298Z,1014.39
2023-01-06T05:41:11.283Z,1014.36
2023-01-06T05:42:11.276Z,1014.44
2023-01-06T05:43:11.279Z,1014.45
2023-01-06T05:44:11.281Z,1014.40
2023-01-06T05:45:11.262Z,1014.46
2023-01-06T05:46:11.351Z,1014.43
2023-01-06T05:47:11.225Z,1014.42
2023-01-06T05:48:11.210Z,1014.45
2023-01-06T05:49:11.207Z,1014.48
2023-01-06T05:50:11.199Z,1014.47
2023-01-06T05:51:11.206Z,1014.45
2023-01-06T05:52:11.174Z,1014.49
2023-01-06T05:53:11.283Z,1014.53
2023-01-06T05:54:11.149Z,1014.43
2023-01-06T05:55:11.139Z,1014.35
2023-01-06T05:56:11.147Z,1014.30
2023-01-06T05:57:11.114Z,1014.30
2023-01-06T05:58:11.108Z,1014.30
2023-01-06T05:59:11.098Z,1014.27
2023-01-06T06:00:11.086Z,1014.32
2023-01-06T06:01:11.117Z,1014.31
2023-01-06T06:02:11.079Z,1014.35
2023-01-06T06:03:11.049Z,1014.42
2023-01-06T06:04:11.038Z,1014.34
2023-01-06T06:05:11.027Z,1014.35
2023-01-06T06:06:11.026Z,1014.33
2023-01-06T06:07:11.024Z,1014.40
2023-01-06T06:08:10.994Z,1014.38
2023-01-06T06:09:11.096Z,1014.36
2023-01-06T06:10:10.982Z,1014.34
2023-01-06T06:11:10.960Z,1014.40
2023-01-06T06:12:10.977Z,1014.40
2023-01-06T06:13:10.958Z,1014.37
2023-01-06T06:14:10.953Z,1014.40
2023-01-06T06:15:10.937Z,1014.34
2023-01-06T06:16:10.940Z,1014.37
2023-01-06T06:17:10.913Z,1014.41
2023-01-06T06:18:10.886Z,1014.31
2023-01-06T06:19:10.875Z,1014.31
2023-01-06T06:20:10.890Z,1014.35
2023-01-06T06:21:10.856Z,1014.33
2023-01-06T06:22:10.991Z,1014.39
2023-01-06T06:23:10.834Z,1014.32
2023-01-06T06:24:10.823Z,1014.23
2023-01-06T06:25:10.950Z,1014.15
2023-01-06T06:26:10.802Z,1014.14
2023-01-06T06:27:10.805Z,1014.13
2023-01-06T06:28:10.774Z,1014.06
2023-01-06T06:29:10.763Z,1014.00
2023-01-06T06:30:10.756Z,1014.02
2023-01-06T06:31:10.828Z,1013.98
2023-01-06T06:32:10.777Z,1014.01
2023-01-06T06:33:10.719Z,1014.03
2023-01-06T06:34:10.720Z,1014.05
2023-01-06T06:35:10.699Z,1014.04
2023-01-06T06:36:10.691Z,1014.05
2023-01-06T06:37:12.533Z,1014.01
2023-01-06T06:38:10.671Z,1014.03
2023-01-06T06:39:10.656Z,1013.95
2023-01-06T06:40:10.646Z,1013.91
2023-01-06T06:41:10.764Z,1013.91
2023-01-06T06:42:10.626Z,1013.90
2023-01-06T06:43:10.643Z,1013.89
2023-01-06T06:44:10.607Z,1013.94
2023-01-06T06:45:10.591Z,1013.92
2023-01-06T06:46:10.678Z,1013.87
2023-01-06T06:47:10.574Z,1013.92
2023-01-06T06:48:10.574Z,1013.91
2023-01-06T06:49:10.570Z,1013.97
2023-01-06T06:50:10.533Z,1013.91
2023-01-06T06:51:10.526Z,1013.90
2023-01-06T06:52:10.524Z,1013.86
2023-01-06T06:53:10.539Z,1013.84
2023-01-06T06:54:10.495Z,1013.85
2023-01-06T06:55:10.482Z,1013.83
2023-01-06T06:56:10.475Z,1013.82
2023-01-06T06:57:10.589Z,1013.83
2023-01-06T06:58:10.473Z,1013.82
2023-01-06T06:59:10.463Z,1013.87
2023-01-06T07:00:10.442Z,1013.81
2023-01-06T07:01:10.609Z,1013.91
2023-01-06T07:02:10.528Z,1013.82
2023-01-06T07:03:10.415Z,1013.81
2023-01-06T07:04:10.451Z,1013.80
2023-01-06T07:05:10.372Z,1013.81
2023-01-06T07:06:10.363Z,1013.82
2023-01-06T07:07:10.356Z,1013.72
2023-01-06T07:08:10.346Z,1013.65
2023-01-06T07:09:10.359Z,1013.65
2023-01-06T07:10:10.324Z,1013.65
2023-01-06T07:11:10.309Z,1013.70
2023-01-06T07:12:10.301Z,1013.70
2023-01-06T07:13:10.411Z,1013.71
2023-01-06T07:14:10.301Z,1013.75
2023-01-06T07:15:10.266Z,1013.71
2023-01-06T07:16:10.332Z,1013.72
2023-01-06T07:17:10.250Z,1013.69
2023-01-06T07:18:10.260Z,1013.66
2023-01-06T07:19:10.222Z,1013.56
2023-01-06T07:20:10.217Z,1013.52
2023-01-06T07:21:10.209Z,1013.51
2023-01-06T07:22:10.198Z,1013.53
2023-01-06T07:23:10.199Z,1013.56
2023-01-06T07:24:10.167Z,1013.61
2023-01-06T07:25:10.161Z,1013.63
2023-01-06T07:26:10.147Z,1013.62
2023-01-06T07:27:10.144Z,1013.63
2023-01-06T07:28:10.161Z,1013.64
2023-01-06T07:29:10.237Z,1013.65
2023-01-06T07:30:10.141Z,1013.64
2023-01-06T07:31:10.151Z,1013.63
2023-01-06T07:32:10.384Z,1013.66
2023-01-06T07:33:10.070Z,1013.65
2023-01-06T07:34:10.088Z,1013.64
2023-01-06T07:35:10.073Z,1013.66
2023-01-06T07:36:10.048Z,1013.61
2023-01-06T07:37:10.025Z,1013.63
2023-01-06T07:38:10.017Z,1013.60
2023-01-06T07:39:10.011Z,1013.60
2023-01-06T07:40:10.024Z,1013.63
2023-01-06T07:41:10.019Z,1013.53
2023-01-06T07:42:09.978Z,1013.59
2023-01-06T07:43:09.984Z,1013.57
2023-01-06T07:44:09.953Z,1013.61
2023-01-06T07:45:10.052Z,1013.65
2023-01-06T07:46:10.042Z,1013.68
2023-01-06T07:47:09.916Z,1013.65
2023-01-06T07:48:09.911Z,1013.70
2023-01-06T07:49:09.905Z,1013.71
2023-01-06T07:50:09.911Z,1013.71
2023-01-06T07:51:09.878Z,1013.70
2023-01-06T07:52:09.880Z,1013.73
2023-01-06T07:53:09.856Z,1013.81
2023-01-06T07:54:09.848Z,1013.74
2023-01-06T07:55:09.848Z,1013.72
2023-01-06T07:56:09.816Z,1013.72
2023-01-06T07:57:09.834Z,1013.80
2023-01-06T07:58:09.792Z,1013.77
2023-01-06T07:59:09.789Z,1013.78
2023-01-06T08:00:09.772Z,1013.75
2023-01-06T08:01:09.936Z,1013.71
2023-01-06T08:02:09.926Z,1013.70
2023-01-06T08:03:09.794Z,1013.69
2023-01-06T08:04:09.726Z,1013.65
2023-01-06T08:05:09.719Z,1013.71
2023-01-06T08:06:09.715Z,1013.63
2023-01-06T08:07:09.752Z,1013.61
2023-01-06T08:08:09.684Z,1013.61
2023-01-06T08:09:09.690Z,1013.56
2023-01-06T08:10:09.676Z,1013.53
2023-01-06T08:11:09.654Z,1013.49
2023-01-06T08:12:09.643Z,1013.43
2023-01-06T08:13:09.670Z,1013.42
2023-01-06T08:14:09.624Z,1013.47
2023-01-06T08:15:09.615Z,1013.47
2023-01-06T08:16:09.659Z,1013.40
2023-01-06T08:17:09.702Z,1013.43
2023-01-06T08:18:09.603Z,1013.35
2023-01-06T08:19:09.570Z,1013.28
2023-01-06T08:20:09.546Z,1013.37
2023-01-06T08:21:09.549Z,1013.38
2023-01-06T08:22:09.532Z,1013.41
2023-01-06T08:23:09.543Z,1013.40
2023-01-06T08:24:09.519Z,1013.44
2023-01-06T08:25:09.504Z,1013.49
2023-01-06T08:26:09.489Z,1013.51
2023-01-06T08:27:09.498Z,1013.46
2023-01-06T08:28:09.489Z,1013.48
2023-01-06T08:29:09.447Z,1013.50
2023-01-06T08:30:09.455Z,1013.48
2023-01-06T08:31:09.581Z,1013.43
2023-01-06T08:32:10.992Z,1013.34
2023-01-06T08:33:09.521Z,1013.33
2023-01-06T08:34:09.429Z,1013.32
2023-01-06T08:35:09.387Z,1013.25
2023-01-06T08:36:09.378Z,1013.27
2023-01-06T08:37:09.382Z,1013.20
2023-01-06T08:38:09.351Z,1013.10
2023-01-06T08:39:09.370Z,1013.06
2023-01-06T08:40:09.331Z,1013.15
2023-01-06T08:41:09.346Z,1013.15
2023-01-06T08:42:09.310Z,1013.17
2023-01-06T08:43:09.319Z,1013.14
2023-01-06T08:44:09.283Z,1013.17
2023-01-06T08:45:09.273Z,1013.26
2023-01-06T08:46:09.290Z,1013.11
2023-01-06T08:47:09.256Z,1013.19
2023-01-06T08:48:09.248Z,1013.24
2023-01-06T08:49:09.359Z,1013.20
2023-01-06T08:50:09.230Z,1013.12
2023-01-06T08:51:09.241Z,1013.02
2023-01-06T08:52:09.204Z,1012.98
2023-01-06T08:53:09.209Z,1012.97
2023-01-06T08:54:09.197Z,1013.03
2023-01-06T08:55:09.168Z,1012.99
2023-01-06T08:56:09.153Z,1012.95
2023-01-06T08:57:09.213Z,1012.95
2023-01-06T08:58:09.159Z,1013.00
2023-01-06T08:59:09.133Z,1012.95
2023-01-06T09:00:09.109Z,1012.95
2023-01-06T09:01:09.123Z,1012.90
2023-01-06T09:02:09.249Z,1012.93
2023-01-06T09:03:09.106Z,1012.91
2023-01-06T09:04:09.067Z,1012.94
2023-01-06T09:05:09.231Z,1012.94
2023-01-06T09:06:09.058Z,1012.91
2023-01-06T09:07:09.055Z,1012.90
2023-01-06T09:08:09.045Z,1012.89
2023-01-06T09:09:09.016Z,1012.91
2023-01-06T09:10:09.008Z,1012.91
2023-01-06T09:11:08.998Z,1012.87
2023-01-06T09:12:09.007Z,1012.92
2023-01-06T09:13:09.004Z,1012.89
2023-01-06T09:14:08.958Z,1013.00
2023-01-06T09:15:08.956Z,1012.92
2023-01-06T09:16:09.035Z,1012.90
2023-01-06T09:17:08.950Z,1012.94
2023-01-06T09:18:08.969Z,1012.97
2023-01-06T09:19:08.932Z,1013.00
2023-01-06T09:20:08.907Z,1012.95
2023-01-06T09:21:09.005Z,1012.94
2023-01-06T09:22:08.876Z,1012.91
2023-01-06T09:23:08.865Z,1013.00
2023-01-06T09:24:08.878Z,1012.99
2023-01-06T09:25:08.866Z,1012.97
2023-01-06T09:26:08.826Z,1012.97
2023-01-06T09:27:08.866Z,1013.02
2023-01-06T09:28:08.824Z,1012.94
2023-01-06T09:29:08.803Z,1013.00
2023-01-06T09:30:08.891Z,1012.92
2023-01-06T09:31:08.888Z,1012.90
2023-01-06T09:32:08.792Z,1012.83
2023-01-06T09:33:08.755Z,1012.84
2023-01-06T09:34:08.767Z,1012.87
2023-01-06T09:35:08.812Z,1012.89
2023-01-06T09:36:08.729Z,1012.86
2023-01-06T09:37:08.746Z,1012.80
2023-01-06T09:38:08.706Z,1012.83
2023-01-06T09:39:08.719Z,1012.82
2023-01-06T09:40:08.680Z,1012.78
2023-01-06T09:41:08.673Z,1012.76
2023-01-06T09:42:08.654Z,1012.79
2023-01-06T09:43:08.656Z,1012.71
2023-01-06T09:44:08.640Z,1012.69
2023-01-06T09:45:08.651Z,1012.69
2023-01-06T09:46:08.670Z,1012.70
2023-01-06T09:47:08.607Z,1012.60
2023-01-06T09:48:08.596Z,1012.59
2023-01-06T09:49:08.583Z,1012.61
2023-01-06T09:50:08.572Z,1012.66
2023-01-06T09:51:08.582Z,1012.65
2023-01-06T09:52:08.547Z,1012.60
2023-01-06T09:53:08.587Z,1012.65
2023-01-06T09:54:08.528Z,1012.55
2023-01-06T09:55:08.525Z,1012.50
2023-01-06T09:56:08.527Z,1012.48
2023-01-06T09:57:08.521Z,1012.41
2023-01-06T09:58:08.485Z,1012.35
2023-01-06T09:59:08.483Z,1012.32
2023-01-06T10:00:08.460Z,1012.36
2023-01-06T10:01:08.533Z,1012.26
2023-01-06T10:02:08.626Z,1012.37
2023-01-06T10:03:08.445Z,1012.35
2023-01-06T10:04:08.493Z,1012.32
2023-01-06T10:05:08.416Z,1012.30
2023-01-06T10:06:08.473Z,1012.25
2023-01-06T10:07:08.419Z,1012.23
2023-01-06T10:08:08.377Z,1012.23
2023-01-06T10:09:08.486Z,1012.21
2023-01-06T10:10:08.366Z,1012.29
2023-01-06T10:11:08.352Z,1012.26
2023-01-06T10:12:08.334Z,1012.26
2023-01-06T10:13:08.345Z,1012.19
2023-01-06T10:14:08.310Z,1012.14
2023-01-06T10:15:08.304Z,1012.09
2023-01-06T10:16:08.317Z,1012.15
2023-01-06T10:17:08.286Z,1012.12
2023-01-06T10:18:08.299Z,1012.03
2023-01-06T10:19:08.282Z,1011.98
2023-01-06T10:20:08.256Z,1012.04
2023-01-06T10:21:08.246Z,1011.97
2023-01-06T10:22:08.246Z,1012.00
2023-01-06T10:23:08.238Z,1011.99
2023-01-06T10:24:08.227Z,1011.94
2023-01-06T10:25:08.316Z,1011.96
2023-01-06T10:26:08.211Z,1011.93
2023-01-06T10:27:08.944Z,1012.06
2023-01-06T10:28:08.164Z,1012.03
2023-01-06T10:29:08.151Z,1012.04
2023-01-06T10:30:08.137Z,1011.99
2023-01-06T10:31:08.223Z,1011.95
2023-01-06T10:32:08.116Z,1012.06
2023-01-06T10:33:08.110Z,1012.11
2023-01-06T10:34:08.112Z,1011.96
2023-01-06T10:35:08.091Z,1011.92
2023-01-06T10:36:08.075Z,1011.87
2023-01-06T10:37:08.065Z,1011.89
2023-01-06T10:38:08.080Z,1011.86
2023-01-06T10:39:08.043Z,1011.78
2023-01-06T10:40:08.032Z,1011.74
2023-01-06T10:41:08.144Z,1011.68
2023-01-06T10:42:08.010Z,1011.68
2023-01-06T10:43:08.024Z,1011.64
2023-01-06T10:44:08.010Z,1011.77
2023-01-06T10:45:07.977Z,1011.73
2023-01-06T10:46:07.965Z,1011.76
2023-01-06T10:47:07.956Z,1011.84
2023-01-06T10:48:07.952Z,1011.70
2023-01-06T10:49:07.970Z,1011.71
2023-01-06T10:50:07.927Z,1011.68
2023-01-06T10:51:07.918Z,1011.65
2023-01-06T10:52:07.898Z,1011.77
2023-01-06T10:53:07.911Z,1011.70
2023-01-06T10:54:07.880Z,1011.66
2023-01-06T10:55:07.888Z,1011.67
2023-01-06T10:56:07.872Z,1011.61
2023-01-06T10:57:07.981Z,1011.62
2023-01-06T10:58:07.863Z,1011.57
2023-01-06T10:59:07.828Z,1011.65
2023-01-06T11:00:07.813Z,1011.63
2023-01-06T11:01:07.951Z,1011.64
2023-01-06T11:02:07.922Z,1011.60
2023-01-06T11:03:32.487Z,1011.54
2023-01-06T11:04:08.769Z,1011.56
2023-01-06T11:05:07.759Z,1011.55
2023-01-06T11:06:07.751Z,1011.49
2023-01-06T11:07:09.595Z,1011.54
2023-01-06T11:08:07.755Z,1011.47
2023-01-06T11:09:07.729Z,1011.44
2023-01-06T11:10:07.707Z,1011.44
2023-01-06T11:11:08.094Z,1011.39
2023-01-06T11:12:07.693Z,1011.45
2023-01-06T11:13:07.864Z,1011.38
2023-01-06T11:14:07.671Z,1011.45
2023-01-06T11:15:07.661Z,1011.40
2023-01-06T11:16:07.659Z,1011.44
2023-01-06T11:17:07.635Z,1011.37
2023-01-06T11:18:07.660Z,1011.47
2023-01-06T11:19:07.632Z,1011.47
2023-01-06T11:20:07.601Z,1011.46
2023-01-06T11:21:07.596Z,1011.41
2023-01-06T11:22:07.577Z,1011.38
2023-01-06T11:23:07.563Z,1011.37
2023-01-06T11:24:07.583Z,1011.38
2023-01-06T11:25:07.542Z,1011.37
2023-01-06T11:26:07.540Z,1011.33
2023-01-06T11:27:07.525Z,1011.25
2023-01-06T11:28:07.509Z,1011.26
2023-01-06T11:29:07.651Z,1011.17
2023-01-06T11:30:07.520Z,1011.25
2023-01-06T11:31:07.478Z,1011.17
2023-01-06T11:32:07.471Z,1011.18
2023-01-06T11:33:07.471Z,1011.18
2023-01-06T11:34:07.449Z,1011.13
2023-01-06T11:35:07.456Z,1011.09
2023-01-06T11:36:07.427Z,1011.18
2023-01-06T11:37:07.410Z,1011.13
2023-01-06T11:38:07.406Z,1011.16
2023-01-06T11:39:07.395Z,1011.10
2023-01-06T11:40:11.600Z,1011.16
2023-01-06T11:41:07.372Z,1011.14
2023-01-06T11:42:07.359Z,1011.09
2023-01-06T11:43:07.350Z,1011.06
2023-01-06T11:44:07.346Z,1011.09
2023-01-06T11:45:07.468Z,1011.06
2023-01-06T11:46:07.366Z,1011.09
2023-01-06T11:47:07.306Z,1011.11
2023-01-06T11:48:07.292Z,1011.06
2023-01-06T11:49:07.291Z,1011.10
2023-01-06T11:50:07.291Z,1011.08
2023-01-06T11:51:07.292Z,1011.09
2023-01-06T11:52:07.254Z,1011.02
2023-01-06T11:53:07.240Z,1011.09
2023-01-06T11:54:07.254Z,1011.03
2023-01-06T11:55:07.251Z,1011.11
2023-01-06T11:56:07.235Z,1011.10
2023-01-06T11:57:07.199Z,1011.05
2023-01-06T11:58:07.187Z,1011.10
2023-01-06T11:59:07.178Z,1011.12
2023-01-06T12:00:07.198Z,1011.07
2023-01-06T12:01:07.394Z,1011.07
2023-01-06T12:02:07.204Z,1011.03
2023-01-06T12:03:07.143Z,1010.99
2023-01-06T12:04:07.126Z,1011.01
2023-01-06T12:05:07.147Z,1010.95